createdAt,value
2023-05-19T00:00:45.014Z,7.9
2023-05-19T00:10:45.124Z,7.8
2023-05-19T00:20:47.162Z,7.6
2023-05-19T00:30:48.342Z,7.2
2023-05-19T00:40:50.148Z,7.1
2023-05-19T00:50:51.558Z,6.7
2023-05-19T01:00:53.104Z,6.3
2023-05-19T01:10:54.722Z,6.2
2023-05-19T01:20:56.304Z,6.2
2023-05-19T03:11:14.891Z,5
2023-05-19T03:51:21.329Z,4.8
2023-05-19T04:01:23.259Z,4.8
2023-05-19T04:21:26.101Z,5.1
2023-05-19T04:31:27.881Z,5.4
2023-05-19T04:41:29.070Z,6
2023-05-19T04:51:30.732Z,6.6
2023-05-19T05:01:32.221Z,7.2
2023-05-19T05:11:33.927Z,7.6
2023-05-19T05:21:35.312Z,8.1
2023-05-19T05:31:36.492Z,8.6
2023-05-19T05:41:38.542Z,8.8
2023-05-19T05:51:40.082Z,9.6
2023-05-19T10:32:24.973Z,18.7
2023-05-19T10:52:27.793Z,19.1
2023-05-19T11:42:35.441Z,20.1
2023-05-19T11:52:36.851Z,20
2023-05-19T12:32:43.072Z,20.3
2023-05-19T12:42:44.828Z,20.4
2023-05-19T12:52:46.098Z,20.4
2023-05-19T13:02:48.248Z,20.4
2023-05-19T13:12:49.364Z,19.3
2023-05-19T13:22:51.112Z,20.3
2023-05-19T13:32:52.833Z,20.5
2023-05-19T13:42:54.782Z,20
2023-05-19T14:02:57.858Z,20.6
2023-05-19T14:13:25.660Z,20.4
2023-05-19T14:23:01.164Z,19.9
2023-05-19T14:33:03.203Z,20
2023-05-19T14:43:04.997Z,20.1
2023-05-19T14:53:06.616Z,19.3
2023-05-19T15:03:08.330Z,20.3
2023-05-19T15:13:09.585Z,19.9
2023-05-19T15:23:11.228Z,19.8
2023-05-19T15:33:13.194Z,20.3
2023-05-19T15:43:15.147Z,20.8
2023-05-19T15:53:16.323Z,19.8
2023-05-19T16:13:20.038Z,20.3
2023-05-19T16:33:22.773Z,20.3
2023-05-19T16:43:24.387Z,20.4
2023-05-19T16:53:26.366Z,20.2
2023-05-19T17:13:29.780Z,20.3
2023-05-19T17:23:31.336Z,20.1
2023-05-19T17:33:32.810Z,19.8
2023-05-19T17:43:34.588Z,19.7
2023-05-19T17:53:35.680Z,19.7
2023-05-19T18:03:37.835Z,19.5
2023-05-19T18:13:39.180Z,19.5
2023-05-19T18:23:41.210Z,19.1
2023-05-19T18:33:42.541Z,18.8
2023-05-19T18:43:44.327Z,17.7
2023-05-19T18:53:45.793Z,17
2023-05-19T19:03:47.584Z,16.6
2023-05-19T19:13:48.652Z,16.1
2023-05-19T19:23:50.329Z,16
2023-05-19T19:33:51.991Z,15.8
2023-05-19T19:44:00.686Z,15.5
2023-05-19T20:04:04.020Z,14.5
2023-05-19T20:24:06.568Z,14.2
2023-05-19T20:44:09.943Z,13.5
2023-05-19T21:04:13.037Z,13.1
2023-05-19T21:24:15.857Z,12.8
2023-05-19T21:44:18.834Z,12.8
2023-05-19T22:04:22.052Z,12.8
2023-05-19T22:44:28.095Z,13.4
2023-05-19T23:04:30.768Z,13
2023-05-19T23:14:31.821Z,12.7
2023-05-19T23:24:33.727Z,12.5
2023-05-19T23:34:35.441Z,12.3
2023-05-19T23:44:37.291Z,12.2
2023-05-19T23:54:39.157Z,12.1
